createdAt,value
2023-03-22T00:01:55.296Z,100157.59
2023-03-22T00:04:25.609Z,100154.88
2023-03-22T00:06:56.064Z,100164.38
2023-03-22T00:09:26.401Z,100166.97
2023-03-22T00:11:57.006Z,100158.16
2023-03-22T00:14:27.589Z,100161.50
2023-03-22T00:16:58.240Z,100157.97
2023-03-22T00:19:30.646Z,100156.09
2023-03-22T00:22:02.321Z,100160.38
2023-03-22T00:24:32.723Z,100161.16
2023-03-22T00:27:03.243Z,100162.81
2023-03-22T00:29:34.012Z,100158.28
2023-03-22T00:32:05.803Z,100153.88
2023-03-22T00:34:36.782Z,100152.78
2023-03-22T00:37:07.193Z,100148.41
2023-03-22T00:39:37.431Z,100158.72
2023-03-22T00:42:09.268Z,100154.25
2023-03-22T00:44:39.705Z,100155.94
2023-03-22T00:47:10.070Z,100144.59
2023-03-22T00:49:43.748Z,100141.03
2023-03-22T00:52:14.128Z,100146.91
2023-03-22T00:54:45.285Z,100135.44
2023-03-22T00:57:16.431Z,100131.06
2023-03-22T00:59:47.547Z,100137.91
2023-03-22T01:02:19.269Z,100126.72
2023-03-22T01:04:51.471Z,100130.09
2023-03-22T01:07:23.117Z,100121.34
2023-03-22T01:09:54.759Z,100132.53
2023-03-22T01:12:25.346Z,100128.16
2023-03-22T01:14:55.863Z,100128.88
2023-03-22T01:17:26.065Z,100127.94
2023-03-22T01:19:56.448Z,100113.25
2023-03-22T01:22:26.701Z,100103.56
2023-03-22T01:24:57.937Z,100100.13
2023-03-22T01:27:28.761Z,100111.28
2023-03-22T01:30:00.099Z,100103.56
2023-03-22T01:32:30.466Z,100096.38
2023-03-22T01:35:01.044Z,100085.94
2023-03-22T01:37:34.198Z,100092.00
2023-03-22T01:40:06.161Z,100085.88
2023-03-22T01:42:37.223Z,100084.19
2023-03-22T01:45:16.893Z,100085.03
2023-03-22T01:47:54.146Z,100084.00
2023-03-22T01:50:26.691Z,100084.66
2023-03-22T01:52:58.583Z,100077.56
2023-03-22T01:55:35.031Z,100088.09
2023-03-22T01:58:17.905Z,100069.75
2023-03-22T02:00:57.238Z,100066.19
2023-03-22T02:04:04.274Z,100055.75
2023-03-22T02:06:43.470Z,100064.06
2023-03-22T02:09:23.624Z,100062.47
2023-03-22T02:12:21.981Z,100058.84
2023-03-22T02:15:18.093Z,100056.88
2023-03-22T02:18:25.367Z,100054.16
2023-03-22T02:21:32.099Z,100046.06
2023-03-22T02:24:25.067Z,100045.94
2023-03-22T02:27:27.761Z,100038.97
2023-03-22T02:30:17.928Z,100033.66
2023-03-22T02:33:36.162Z,100028.22
2023-03-22T02:36:26.744Z,100026.44
2023-03-22T02:39:16.001Z,100029.81
2023-03-22T02:42:09.046Z,100011.44
2023-03-22T02:44:44.527Z,100000.06
2023-03-22T02:47:24.360Z,99997.47
2023-03-22T02:50:17.425Z,99994.78
2023-03-22T02:53:02.456Z,99988.63
2023-03-22T02:55:55.340Z,99988.50
2023-03-22T02:58:34.123Z,99978.00
2023-03-22T03:01:10.497Z,99964.84
2023-03-22T03:03:41.872Z,99956.06
2023-03-22T03:06:20.149Z,99960.34
2023-03-22T03:08:55.024Z,99960.25
2023-03-22T03:11:25.493Z,99953.28
2023-03-22T03:13:56.182Z,99958.38
2023-03-22T03:16:31.062Z,99942.72
2023-03-22T03:19:27.554Z,99936.47
2023-03-22T03:22:15.126Z,99924.28
2023-03-22T03:25:03.951Z,99918.94
2023-03-22T03:27:41.649Z,99911.94
2023-03-22T03:30:48.313Z,99911.81
2023-03-22T03:33:22.467Z,99919.66
2023-03-22T03:36:14.215Z,99903.81
2023-03-22T03:38:49.721Z,99903.81
2023-03-22T03:41:26.617Z,99904.53
2023-03-22T03:43:59.976Z,99890.66
2023-03-22T03:46:30.854Z,99894.00
2023-03-22T03:49:02.353Z,99895.66
2023-03-22T03:51:32.973Z,99898.28
2023-03-22T03:54:03.359Z,99903.50
2023-03-22T03:56:33.740Z,99894.66
2023-03-22T03:59:04.121Z,99885.94
2023-03-22T04:01:34.700Z,99887.53
2023-03-22T04:04:20.198Z,99890.03
2023-03-22T04:06:54.537Z,99882.13
2023-03-22T04:09:32.214Z,99873.34
2023-03-22T04:12:12.801Z,99869.78
2023-03-22T04:14:44.442Z,99861.84
2023-03-22T04:17:23.760Z,99862.66
2023-03-22T04:19:55.077Z,99860.91
2023-03-22T04:22:26.789Z,99857.25
2023-03-22T04:24:57.443Z,99853.69
2023-03-22T04:27:28.925Z,99851.91
2023-03-22T04:30:06.923Z,99848.28
2023-03-22T04:32:55.187Z,99829.06
2023-03-22T04:35:36.373Z,99824.66
2023-03-22T04:38:06.867Z,99815.06
2023-03-22T04:40:40.134Z,99807.97
2023-03-22T04:43:20.443Z,99803.56
2023-03-22T04:46:03.299Z,99806.91
2023-03-22T04:48:44.008Z,99796.38
2023-03-22T04:51:14.681Z,99796.25
2023-03-22T04:53:56.178Z,99800.41
2023-03-22T04:56:27.177Z,99800.31
2023-03-22T04:58:57.548Z,99800.09
2023-03-22T05:01:28.011Z,99791.25
2023-03-22T05:04:11.076Z,99786.94
2023-03-22T05:06:41.832Z,99779.84
2023-03-22T05:09:23.636Z,99779.75
2023-03-22T05:11:56.331Z,99773.47
2023-03-22T05:14:42.437Z,99775.03
2023-03-22T05:17:15.097Z,99766.13
2023-03-22T05:19:47.347Z,99774.72
2023-03-22T05:22:17.765Z,99762.38
2023-03-22T05:24:51.546Z,99755.38
2023-03-22T05:27:32.807Z,99750.84
2023-03-22T05:30:11.468Z,99750.03
2023-03-22T05:33:07.345Z,99754.19
2023-03-22T05:35:43.899Z,99749.69
2023-03-22T05:38:14.956Z,99745.19
2023-03-22T05:40:50.003Z,99747.69
2023-03-22T05:43:21.886Z,99746.88
2023-03-22T05:45:53.575Z,99745.81
2023-03-22T05:48:49.776Z,99749.25
2023-03-22T05:51:21.253Z,99742.13
2023-03-22T05:53:55.079Z,99736.91
2023-03-22T05:56:29.979Z,99729.78
2023-03-22T05:59:08.510Z,99727.16
2023-03-22T06:01:39.089Z,99721.84
2023-03-22T06:04:20.185Z,99710.44
2023-03-22T06:07:03.226Z,99713.06
2023-03-22T06:09:41.341Z,99712.03
2023-03-22T06:12:18.775Z,99710.25
2023-03-22T06:14:54.564Z,99713.56
2023-03-22T06:17:43.861Z,99709.16
2023-03-22T06:20:17.824Z,99697.75
2023-03-22T06:22:54.493Z,99708.22
2023-03-22T06:25:25.745Z,99692.53
2023-03-22T06:27:56.224Z,99697.66
2023-03-22T06:30:28.055Z,99701.81
2023-03-22T06:33:20.880Z,99699.94
2023-03-22T06:35:57.708Z,99698.03
2023-03-22T06:38:34.572Z,99699.69
2023-03-22T06:41:05.925Z,99698.03
2023-03-22T06:43:36.762Z,99702.31
2023-03-22T06:46:24.976Z,99689.25
2023-03-22T06:49:04.188Z,99702.22
2023-03-22T06:51:34.703Z,99696.97
2023-03-22T06:54:04.930Z,99703.88
2023-03-22T06:56:35.255Z,99696.72
2023-03-22T06:59:05.600Z,99701.00
2023-03-22T07:01:36.173Z,99701.13
2023-03-22T07:04:07.070Z,99689.72
2023-03-22T07:06:37.456Z,99691.41
2023-03-22T07:09:08.291Z,99693.06
2023-03-22T07:11:39.847Z,99687.84
2023-03-22T07:14:11.746Z,99698.16
2023-03-22T07:17:09.325Z,99686.06
2023-03-22T07:19:39.967Z,99688.56
2023-03-22T07:22:11.730Z,99693.56
2023-03-22T07:24:55.703Z,99690.00
2023-03-22T07:27:29.489Z,99694.25
2023-03-22T07:30:00.206Z,99693.56
2023-03-22T07:32:31.432Z,99694.38
2023-03-22T07:35:11.704Z,99690.81
2023-03-22T07:37:43.694Z,99691.56
2023-03-22T07:40:22.398Z,99695.00
2023-03-22T07:42:55.979Z,99694.16
2023-03-22T07:45:46.726Z,99701.06
2023-03-22T07:48:49.505Z,99695.69
2023-03-22T07:51:39.648Z,99699.16
2023-03-22T07:54:10.744Z,99691.22
2023-03-22T07:56:44.094Z,99688.59
2023-03-22T07:59:15.149Z,99684.28
2023-03-22T08:01:46.312Z,99688.59
2023-03-22T08:04:35.697Z,99685.97
2023-03-22T08:07:39.029Z,99686.69
2023-03-22T08:10:10.616Z,99691.09
2023-03-22T08:12:41.061Z,99684.06
2023-03-22T08:15:22.535Z,99690.97
2023-03-22T08:17:53.319Z,99690.13
2023-03-22T08:20:33.413Z,99690.13
2023-03-22T08:23:12.847Z,99690.00
2023-03-22T08:26:01.982Z,99695.22
2023-03-22T08:28:32.490Z,99696.19
2023-03-22T08:31:02.965Z,99699.53
2023-03-22T08:33:35.294Z,99701.31
2023-03-22T08:36:16.794Z,99700.38
2023-03-22T08:38:55.690Z,99695.22
2023-03-22T08:41:36.586Z,99693.56
2023-03-22T08:44:07.914Z,99694.41
2023-03-22T08:46:39.309Z,99692.63
2023-03-22T08:49:12.001Z,99688.34
2023-03-22T08:51:51.865Z,99690.97
2023-03-22T08:54:42.736Z,99692.63
2023-03-22T08:57:39.440Z,99693.56
2023-03-22T09:00:39.061Z,99690.97
2023-03-22T09:03:22.386Z,99693.56
2023-03-22T09:05:53.487Z,99689.31
2023-03-22T09:08:24.004Z,99689.31
2023-03-22T09:11:00.877Z,99692.03
2023-03-22T09:13:33.898Z,99698.09
2023-03-22T09:16:10.481Z,99707.59
2023-03-22T09:18:43.014Z,99699.06
2023-03-22T09:21:19.349Z,99702.50
2023-03-22T09:24:00.747Z,99698.19
2023-03-22T09:26:41.552Z,99699.97
2023-03-22T09:29:12.570Z,99699.16
2023-03-22T09:31:43.337Z,99692.97
2023-03-22T09:34:33.580Z,99697.34
2023-03-22T09:37:04.586Z,99700.94
2023-03-22T09:39:46.115Z,99699.97
2023-03-22T09:42:43.788Z,99699.16
2023-03-22T09:45:22.694Z,99691.44
2023-03-22T09:47:57.984Z,99688.81
2023-03-22T09:50:33.136Z,99689.78
2023-03-22T09:53:04.094Z,99687.97
2023-03-22T09:55:41.438Z,99682.75
2023-03-22T09:58:22.350Z,99684.53
2023-03-22T10:01:24.846Z,99687.97
2023-03-22T10:04:09.843Z,99680.97
2023-03-22T10:06:42.085Z,99678.38
2023-03-22T10:09:37.375Z,99679.31
2023-03-22T10:12:18.460Z,99694.16
2023-03-22T10:14:53.737Z,99689.03
2023-03-22T10:17:29.306Z,99691.66
2023-03-22T10:20:10.401Z,99693.31
2023-03-22T10:22:46.057Z,99701.28
2023-03-22T10:25:22.035Z,99697.72
2023-03-22T10:27:53.462Z,99690.00
2023-03-22T10:30:30.649Z,99705.66
2023-03-22T10:33:15.568Z,99700.44
2023-03-22T10:35:46.274Z,99697.84
2023-03-22T10:38:26.175Z,99702.09
2023-03-22T10:41:00.281Z,99698.66
2023-03-22T10:43:52.815Z,99702.22
2023-03-22T10:46:27.698Z,99699.63
2023-03-22T10:49:02.748Z,99699.63
2023-03-22T10:51:53.083Z,99707.44
2023-03-22T10:54:26.493Z,99702.34
2023-03-22T10:56:57.026Z,99708.28
2023-03-22T10:59:52.676Z,99705.78
2023-03-22T11:02:32.401Z,99708.28
2023-03-22T11:05:08.728Z,99709.25
2023-03-22T11:07:46.733Z,99707.44
2023-03-22T11:10:37.094Z,99698.78
2023-03-22T11:13:13.262Z,99700.56
2023-03-22T11:15:52.770Z,99709.25
2023-03-22T11:18:23.660Z,99707.56
2023-03-22T11:21:12.282Z,99707.56
2023-03-22T11:23:57.766Z,99716.25
2023-03-22T11:26:32.170Z,99725.88
2023-03-22T11:29:29.391Z,99726.78
2023-03-22T11:32:01.700Z,99721.56
2023-03-22T11:34:33.562Z,99719.81
2023-03-22T11:37:10.007Z,99725.03
2023-03-22T11:39:51.516Z,99729.41
2023-03-22T11:42:23.529Z,99732.88
2023-03-22T11:44:55.044Z,99729.41
2023-03-22T11:47:28.797Z,99728.50
2023-03-22T11:50:00.085Z,99729.41
2023-03-22T11:52:30.576Z,99731.09
2023-03-22T11:55:03.218Z,99730.16
2023-03-22T11:57:37.702Z,99736.31
2023-03-22T12:00:28.211Z,99735.50
2023-03-22T12:03:01.532Z,99738.94
2023-03-22T12:05:33.488Z,99734.63
2023-03-22T12:08:18.251Z,99738.94
2023-03-22T12:10:54.221Z,99730.28
2023-03-22T12:13:24.423Z,99730.28
2023-03-22T12:16:01.224Z,99736.53
2023-03-22T12:18:35.563Z,99724.19
2023-03-22T12:21:06.233Z,99724.19
2023-03-22T12:23:37.302Z,99722.53
2023-03-22T12:26:17.590Z,99735.59
2023-03-22T12:29:06.244Z,99738.13
2023-03-22T12:31:44.266Z,99736.31
2023-03-22T12:34:26.346Z,99725.97
2023-03-22T12:36:59.176Z,99727.75
2023-03-22T12:39:39.852Z,99730.28
2023-03-22T12:42:29.302Z,99735.50
2023-03-22T12:45:18.413Z,99748.66
2023-03-22T12:47:53.368Z,99738.13
2023-03-22T12:50:36.086Z,99741.66
2023-03-22T12:53:07.985Z,99745.94
2023-03-22T12:55:41.401Z,99746.03
2023-03-22T12:58:15.906Z,99749.50
2023-03-22T13:01:47.062Z,99747.69
2023-03-22T13:04:38.826Z,99749.50
2023-03-22T13:07:32.407Z,99744.25
2023-03-22T13:10:38.437Z,99750.22
2023-03-22T13:13:14.932Z,99754.84
2023-03-22T13:16:25.971Z,99758.16
2023-03-22T13:19:00.637Z,99748.66
2023-03-22T13:21:35.299Z,99744.25
2023-03-22T13:24:10.348Z,99742.47
2023-03-22T13:26:55.738Z,99746.03
2023-03-22T13:29:35.833Z,99740.81
2023-03-22T13:32:46.236Z,99740.94
2023-03-22T13:35:52.743Z,99747.94
2023-03-22T13:38:28.838Z,99749.63
2023-03-22T13:41:09.669Z,99741.91
2023-03-22T13:44:04.791Z,99739.28
2023-03-22T13:46:40.284Z,99738.44
2023-03-22T13:49:33.915Z,99738.44
2023-03-22T13:52:09.284Z,99734.97
2023-03-22T13:54:53.867Z,99730.50
2023-03-22T13:57:50.646Z,99730.63
2023-03-22T14:00:33.217Z,99729.75
2023-03-22T14:03:25.205Z,99736.75
2023-03-22T14:06:26.826Z,99734.16
2023-03-22T14:09:03.740Z,99734.97
2023-03-22T14:11:50.838Z,99722.66
2023-03-22T14:14:33.558Z,99729.75
2023-03-22T14:17:22.928Z,99714.94
2023-03-22T14:19:54.998Z,99715.75
